1976 Tropical Cyclone ALICE (1976062S15115)


IBTrACS version v04r00. Visit IBTrACS website for data access.
Please direct all questions to the IBTrACS Q and A forum

Storm track - Intensity - Wind Radii - Intensity Data - Source Data - All data

Summary Information

Storm ID 1976062S15115
Start Mar 2 01Z
Max Intensity 50 kt (Mar 6 12Z), 988 mb (Mar 6 12Z)
End Mar 13 01Z
ATCF IDs ,SH181976
Track status Best track data.

Storm track plot

Map of storm track

Intensity plots

Map of storm track

Radial wind information

No radial wind information for this storm


Position and Intensity Table

BASIN ISO_TIME_________ NATURE LAT LON WMO WIND WMO PRES BOM WIND BOM PRES DS824 WIND DS824 PRES NEUMANN WIND NEUMANN PRES
degrees north degrees east kts mb kts mb kts mb kts mb
SI 1976-03-02 01:00:00 NR -15.00 115.40 20 1003 20 1003
SI 03:00:00 NR -15.01 115.40 20 1003
SI 04:00:00 NR -15.00 115.40 20 1003 20 1003
SI 06:00:00 TS -14.92 115.43 20 1003 25 1003 25 1003
SI 07:00:00 TS -14.90 115.40 20 1003 20 1003 25 1003 25 1003
SI 09:00:00 TS -14.90 115.29 20 1003 25 1003 25 1003
SI 10:00:00 TS -14.91 115.20 20 1003 20 1003 25 1003 25 1003
SI 12:00:00 TS -14.90 114.98 20 1003 25 1003 25 1003
SI 13:00:00 TS -14.89 114.84 20 1003 20 1003 25 1003 25 1003
SI 15:00:00 TS -14.85 114.51 20 1003 25 1003 25 1003
SI 16:00:00 TS -14.83 114.32 20 1003 20 1003 25 1003 25 1003
SI 18:00:00 TS -14.80 113.86 20 1003 25 1003 25 1003
SI 19:00:00 TS -14.79 113.61 20 1003 20 1003 25 1003 25 1003
SI 21:00:00 TS -14.74 113.14 20 1003 25 1003 25 1003
SI 22:00:00 TS -14.72 112.90 20 1003 20 1003 25 1003 25 1003
SI 1976-03-03 00:00:00 TS -14.70 112.44 20 1003 25 1003 25 1003
SI 01:00:00 TS -14.69 112.24 20 1003 20 1003 25 1003 25 1003
SI 03:00:00 TS -14.66 111.93 20 1003 25 1003 25 1003
SI 04:00:00 TS -14.65 111.79 20 1003 20 1003 25 1003 25 1003
SI 06:00:00 TS -14.61 111.51 20 1003 25 1003 25 1003
SI 07:00:00 TS -14.60 111.37 20 1003 20 1003 25 1003 25 1003
SI 09:00:00 TS -14.59 111.10 20 1003 25 1003 25 1003
SI 10:00:00 TS -14.60 110.97 20 1003 20 1003 25 1003 25 1003
SI 12:00:00 TS -14.60 110.71 20 1003 25 1003 25 1003
SI 13:00:00 TS -14.60 110.58 20 1003 20 1003 25 1003 25 1003
SI 15:00:00 TS -14.60 110.31 20 1003 25 1003 25 1003
SI 16:00:00 TS -14.61 110.18 20 1003 20 1003 25 1003 25 1003
SI 18:00:00 TS -14.60 109.91 20 1003 25 1003 25 1003
SI 19:00:00 TS -14.59 109.77 20 1003 20 1003 25 1003 25 1003
SI 21:00:00 TS -14.54 109.50 20 1003 25 1003 25 1003
SI 22:00:00 TS -14.52 109.38 20 1003 20 1003 25 1003 25 1003
SI 1976-03-04 00:00:00 TS -14.50 109.16 20 1003 25 1003 25 1003
SI 01:00:00 TS -14.50 109.08 20 1003 20 1003 25 1003 25 1003
SI 03:00:00 TS -14.49 108.97 20 1003 25 1003 25 1003
SI 04:00:00 TS -14.50 108.92 20 1003 20 1003 25 1003 25 1003
SI 06:00:00 TS -14.50 108.82 20 1003 25 1003 25 1003
SI 07:00:00 TS -14.50 108.77 20 1003 20 1003 25 1002 25 1002
SI 09:00:00 TS -14.50 108.68 23 1002 25 1002 25 1002
SI 10:00:00 TS -14.50 108.65 25 1002 25 1002 25 1002 25 1002
SI 12:00:00 TS -14.50 108.58 25 1002 25 1002 25 1002
SI 13:00:00 TS -14.50 108.55 25 1002 25 1002 25 1001 25 1001
SI 15:00:00 TS -14.50 108.48 25 1001 27 1001 27 1001
SI 16:00:00 TS -14.51 108.46 25 1001 25 1001 28 1000 28 1000
SI 18:00:00 TS -14.50 108.43 25 1000 30 1000 30 1000
SI 19:00:00 TS -14.49 108.43 25 1000 25 1000 30 999 30 999
SI 21:00:00 TS -14.44 108.43 25 999 30 999 30 999
SI 22:00:00 TS -14.42 108.41 25 999 25 999 30 999 30 999
SI 1976-03-05 00:00:00 TS -14.40 108.35 25 999 30 999 30 999
SI 01:00:00 TS -14.41 108.29 25 999 25 999 30 999 30 999
SI 03:00:00 TS -14.45 108.08 25 999 30 999 30 999
SI 04:00:00 TS -14.46 108.39 25 999 25 999 30 999 30 999
SI 06:00:00 TS -14.48 108.25 25 999 30 999 30 999
SI 07:00:00 TS -14.50 107.75 25 999 25 999 30 999 30 999
SI 09:00:00 TS -14.50 107.32 25 999 30 999 30 999
SI 10:00:00 TS -14.50 107.19 25 999 25 999 30 999 30 999
SI 12:00:00 TS -14.50 106.96 25 999 30 999 30 999
SI 13:00:00 TS -14.51 106.87 25 999 25 999 30 998 30 998
SI 15:00:00 TS -14.55 106.68 28 998 32 998 32 998
SI 16:00:00 TS -14.57 106.60 30 998 30 998 33 997 33 997
SI 18:00:00 TS -14.60 106.45 30 997 35 997 35 997
SI 19:00:00 TS -14.61 106.38 30 997 30 997 35 996 35 996
SI 21:00:00 TS -14.65 106.23 33 995 37 995 37 996
SI 22:00:00 TS -14.67 106.16 35 995 35 995 38 995 38 995
SI 1976-03-06 00:00:00 TS -14.70 106.02 38 994 40 994 40 995
SI 01:00:00 TS -14.72 105.96 40 994 40 994 40 993 40 994
SI 03:00:00 TS -14.77 105.83 40 992 42 992 42 993
SI 04:00:00 TS -14.72 106.11 40 992 40 992 43 992 43 993
SI 06:00:00 TS -14.75 106.15 43 991 45 991 45 992
SI 07:00:00 TS -14.75 106.18 45 991 45 991 45 990 45 991
SI 09:00:00 TS -14.81 106.03 45 990 46 990 47 990
SI 10:00:00 TS -14.87 105.92 45 990 45 990 46 990 48 990
SI 12:00:00 TS -15.01 105.73 45 988 47 989 50 989
SI 13:00:00 TS -15.09 105.66 45 988 45 988 47 989 50 988
SI 15:00:00 TS -15.27 105.55 48 988 48 988 50 988
SI 16:00:00 TS -15.36 105.51 50 988 50 988 49 988 50 988
SI 18:00:00 TS -15.54 105.42 50 988 50 988 50 988
SI 19:00:00 TS -15.63 105.37 50 988 50 988 50 988 50 988
SI 21:00:00 TS -15.80 105.27 50 988 50 988 50 988
SI 22:00:00 TS -15.88 105.22 50 988 50 988 50 988 50 988
SI 1976-03-07 00:00:00 TS -16.03 105.09 50 988 50 988 50 988
SI 01:00:00 TS -16.10 105.01 50 988 50 988 50 988 50 988
SI 03:00:00 TS -16.27 104.82 50 988 50 988 50 988
SI 04:00:00 TS -16.36 104.71 50 988 50 988 50 988 50 988
SI 06:00:00 TS -16.53 104.49 50 988 50 988 50 988
SI 07:00:00 TS -16.61 104.39 50 988 50 988 48 988 49 988
SI 09:00:00 TS -16.76 104.19 50 989 45 991 47 990
SI 10:00:00 TS -16.83 104.10 50 990 50 990 43 991 46 990
SI 12:00:00 TS -16.94 103.93 50 992 40 994 45 992
SI 13:00:00 TS -16.99 103.84 50 994 50 994 40 994 44 992
SI 15:00:00 TS -17.06 103.67 46 994 40 994 42 993
SI 16:00:00 TS -17.09 103.58 45 995 45 995 40 994 41 993
SI 18:00:00 TS -17.14 103.42 41 995 40 995 40 994
SI 19:00:00 TS -17.17 103.33 40 995 40 995 38 995 39 994
SI 21:00:00 TS -17.21 103.16 40 996 35 997 37 995
SI 22:00:00 TS -17.23 103.08 40 997 40 997 33 997 36 995
SI 1976-03-08 00:00:00 TS -17.25 102.91 36 998 30 999 35 997
SI 01:00:00 TS -17.26 102.83 35 999 35 999 30 999 34 997
SI 03:00:00 TS -17.26 102.68 31 999 30 999 32 998
SI 04:00:00 TS -17.26 102.60 30 999 30 999 30 999 31 998
SI 06:00:00 TS -17.26 102.43 30 999 30 999 30 999
SI 07:00:00 TS -17.26 102.34 30 999 30 999 29 999 29 999
SI 09:00:00 TS -17.26 102.15 30 999 27 1001 27 1000
SI 10:00:00 TS -17.26 102.06 30 1000 30 1000 26 1001 26 1000
SI 12:00:00 TS -17.25 101.88 30 1002 25 1003 25 1001
SI 13:00:00 TS -17.25 101.79 30 1003 30 1003 25 1002 25 1001
SI 15:00:00 TS -17.24 101.58 26 1003 25 1002 25 1001
SI 16:00:00 TS -17.23 101.47 25 1003 25 1003 25 1002 25 1001
SI 18:00:00 TS -17.21 101.24 25 1002 25 1002 25 1002
SI 19:00:00 TS -17.19 101.12 25 1002 25 1002 25 1002 25 1002
SI 21:00:00 TS -17.15 100.87 25 1002 25 1002 25 1002
SI 22:00:00 TS -17.13 100.74 25 1003 25 1003 25 1002 25 1002
SI 1976-03-09 00:00:00 TS -17.07 100.46 25 1003 25 1003 25 1002
SI 01:00:00 TS -17.05 100.30 25 1003 25 1003 25 1002 25 1001
SI 03:00:00 TS -16.99 99.96 25 1002 27 1002 25 1001
SI 04:00:00 TS -16.95 99.78 25 1002 25 1002 28 1001 25 1001
SI 06:00:00 TS -16.87 99.40 25 1001 30 1001 25 1001
SI 07:00:00 TS -16.81 99.22 25 1001 25 1001 29 1001 25 1001
SI 09:00:00 TS -16.67 98.87 25 1001 27 1002 25 1001
SI 10:00:00 TS -16.60 98.69 25 1002 25 1002 26 1002 25 1001
SI 12:00:00 TS -16.47 98.35 25 1002 25 1003 25 1002
SI 13:00:00 TS -16.41 98.19 25 1003 25 1003 25 1003 25 1002
SI 15:00:00 TS -16.29 97.91 25 1003 25 1003 25 1002
SI 16:00:00 TS -16.23 97.79 25 1003 25 1003 25 1003 25 1002
SI 18:00:00 TS -16.09 97.53 25 1003 25 1003 25 1003
SI 19:00:00 TS -16.03 97.39 25 1003 25 1003 24 1003 25 1003
SI 21:00:00 TS -15.89 97.13 25 1003 22 1003 25 1003
SI 22:00:00 TS -15.82 96.99 25 1004 25 1004 21 1003 25 1003
SI 1976-03-10 00:00:00 TS -15.67 96.73 21 1004 20 1004 25 1003
SI 01:00:00 TS -15.59 96.61 20 1004 20 1004 20 1003 25 1002
SI 03:00:00 TS -15.41 96.36 20 1003 22 1003 25 1002
SI 04:00:00 TS -15.30 96.23 20 1003 20 1003 23 1002 25 1002
SI 06:00:00 TS -15.10 95.98 20 1002 25 1002 25 1002
SI 07:00:00 TS -14.99 95.86 20 1002 20 1002 25 1001 25 1001
SI 09:00:00 TS -14.77 95.61 20 1001 27 1001 27 1001
SI 10:00:00 TS -14.66 95.48 20 1001 20 1001 28 1000 28 1000
SI 12:00:00 TS -14.47 95.19 20 1000 30 1000 30 1000
SI 13:00:00 TS -14.38 95.02 20 1000 20 1000 30 1000 30 1000
SI 15:00:00 TS -14.23 94.62 20 1000 30 1000 30 1000
SI 16:00:00 TS -14.17 94.40 20 1000 20 1000 30 1000 30 1000
SI 18:00:00 TS -14.07 93.94 20 1000 30 1001 30 1000
SI 19:00:00 TS -14.04 93.70 20 1001 20 1001 29 1001 29 1000
SI 21:00:00 TS -14.00 93.23 20 1001 27 1002 27 1001
SI 22:00:00 TS -13.97 93.00 20 1002 20 1002 26 1002 26 1001
SI 1976-03-11 00:00:00 TS -13.94 92.50 20 1002 25 1003 25 1002
SI 01:00:00 TS -13.89 92.29 20 1003 20 1003 25 1003 25 1002
SI 03:00:00 TS -13.89 91.95 20 1003 25 1003 25 1002
SI 04:00:00 TS -13.89 91.82 20 1003 20 1003 25 1003 25 1002
SI 06:00:00 TS -13.90 91.57 20 1003 25 1003 25 1003
SI 07:00:00 TS -13.90 91.45 20 1003 20 1003 25 1003 25 1003
SI 09:00:00 TS -13.89 91.21 20 1003 25 1003 25 1003
SI 10:00:00 TS -13.89 91.08 20 1003 20 1003 25 1003 25 1003
SI 12:00:00 TS -13.90 90.82 20 1003 25 1003 25 1003
SI 13:00:00 TS -13.91 90.65 20 1003 20 1003 24 1003 25 1003
SI 15:00:00 TS -13.96 90.27 20 1003 22 1003 25 1003
SI 16:00:00 TS -13.98 90.05 20 1004 20 1004 21 1003 25 1003
SI 18:00:00 TS -14.00 89.61 20 1004 20 1004 25 1003
SI 19:00:00 TS -14.01 89.39 20 1004 20 1004 19 1004 24 1003
SI 21:00:00 TS -14.01 88.97 20 1004 17 1005 22 1004
SI 22:00:00 TS -14.01 88.75 20 1005 20 1005 16 1005 21 1004
SI 1976-03-12 00:00:00 TS -14.00 88.31 20 1005 15 1006 20 1005
SI 01:00:00 TS -13.99 88.10 20 1006 20 1006 15 1006 19 1005
SI 03:00:00 TS -13.95 87.69 20 1006 15 1006 17 1005
SI 04:00:00 TS -13.93 87.50 20 1006 20 1006 15 1006 16 1005
SI 06:00:00 TS -13.90 87.10 20 1006 15 1006 15 1006
SI 07:00:00 TS -13.89 86.90 20 1006 20 1006 15 1006 15 1006
SI 09:00:00 TS -13.84 86.51 20 1006 15 1006 15 1006
SI 10:00:00 TS -13.82 86.31 20 1006 20 1006 15 1006 15 1006
SI 12:00:00 TS -13.80 85.90 20 1006 15 1006 15 1006
SI 13:00:00 TS -13.79 85.69 20 1006 20 1006 15 1006 15 1006
SI 15:00:00 TS -13.75 85.25 20 1006 15 1006 15 1006
SI 16:00:00 TS -13.72 85.03 20 1007 20 1007 15 1006 15 1006
SI 18:00:00 TS -13.70 84.60 20 1007 15 1007 15 1006
SI 19:00:00 TS -13.69 84.39 20 1007 20 1007 15 1007 15 1006
SI 21:00:00 TS -13.63 83.93 20 1007 15 1007 15 1006
SI 22:00:00 TS -13.60 83.70 20 1007 20 1007 15 1007 15 1006
SI 1976-03-13 00:00:00 TS -13.54 83.27 20 1007 15 1007 15 1007
SI 01:00:00 NR -13.50 83.00 20 1007 20 1007

Source Information

Agency Information
USA bsh181976.txt
TOKYO
CMA
HKO
NEWDELHI
REUNION
BOM IDCKMSTM0S.csv:Line=10327:ALICE
NADI
WELLINGTON
DS824 aus_area.dat:551:ALICE
TD9636 cons_worldwide_trop_cyclone_18710101-19891231-006:Line=10173
TD9635
NEUMANN tracks.sh:Storm=464:ALICE:BSH1876:BM469
MLC

All available IBTrACS Data

SEASON BASIN SUBBASIN ISO_TIME_________ NATURE LAT LON WMO WIND WMO PRES WMO AGENCY DIST2LAND LANDFALL IFLAG USA AGENCY USA ATCF_ID USA LAT USA LON USA SSHS BOM LAT BOM LON BOM TYPE BOM WIND BOM PRES BOM CI DS824 LAT DS824 LON DS824 STAGE DS824 WIND DS824 PRES TD9636 LAT TD9636 LON TD9636 STAGE NEUMANN LAT NEUMANN LON NEUMANN CLASS NEUMANN WIND NEUMANN PRES STORM SPEED STORM DIR
Year degrees north degrees east kts mb km km degrees north degrees east 1 degrees north degrees east kts mb 1 degrees north degrees east kts mb degrees north degrees east degrees north degrees east kts mb kts degrees
1976 SI WA 1976-03-02 01:00:00 NR -15.00 115.40 20 1003 bom 641 641 ______O_______ -1 -15.00 115.40 20 20 1003 1.00 0 0
1976 SI WA 03:00:00 NR -15.01 115.40 641 641 ______P_______ -1 -15.01 115.40 20 20 1003 0 0
1976 SI WA 04:00:00 NR -15.00 115.40 20 1003 bom 641 641 ______O_______ -1 -15.00 115.40 20 20 1003 1.00 2 19
1976 SI WA 06:00:00 TS -14.92 115.43 652 652 ______P__O__O_ -1 -14.93 115.42 20 20 1003 -14.90 115.40 TC 25 1003 -14.90 115.50 TC 25 1003 2 0
1976 SI WA 07:00:00 TS -14.90 115.40 20 1003 bom 652 652 ______O__P__P_ -1 -14.90 115.40 20 20 1003 1.00 -14.90 115.34 TC 25 1003 -14.90 115.46 TC 25 1003 3 277
1976 SI WA 09:00:00 TS -14.90 115.29 654 654 ______P__P__P_ -1 -14.89 115.29 20 20 1003 -14.91 115.20 TC 25 1003 -14.91 115.37 TC 25 1003 4 269
1976 SI WA 10:00:00 TS -14.91 115.20 20 1003 bom 657 657 ______O__P__P_ -1 -14.90 115.20 20 20 1003 1.00 -14.91 115.12 TC 25 1003 -14.91 115.30 TC 25 1003 6 270
1976 SI WA 12:00:00 TS -14.90 114.98 662 662 ______P__O__O_ -1 -14.91 114.95 20 20 1003 -14.90 114.90 TC 25 1003 -14.90 115.10 TC 25 1003 7 272
1976 SI WA 13:00:00 TS -14.89 114.84 20 1003 bom 668 668 ______O__P__P_ -1 -14.90 114.80 20 20 1003 1.00 -14.89 114.76 TC 25 1003 -14.89 114.96 TC 25 1003 9 277
1976 SI WA 15:00:00 TS -14.85 114.51 672 672 ______P__P__P_ -1 -14.83 114.50 20 20 1003 -14.86 114.42 TC 25 1003 -14.86 114.62 TC 25 1003 10 278
1976 SI WA 16:00:00 TS -14.83 114.32 20 1003 bom 672 672 ______O__P__P_ -1 -14.80 114.30 20 20 1003 1.00 -14.84 114.23 TC 25 1003 -14.84 114.42 TC 25 1003 13 274
1976 SI WA 18:00:00 TS -14.80 113.86 676 677 ______P__O__O_ -1 -14.80 113.78 20 20 1003 -14.80 113.80 TC 25 1003 -14.80 114.00 TC 25 1003 14 273
1976 SI WA 19:00:00 TS -14.79 113.61 20 1003 bom 680 678 ______O__P__P_ -1 -14.80 113.50 20 20 1003 1.00 -14.78 113.56 TC 25 1003 -14.78 113.79 TC 25 1003 14 275
1976 SI WA 21:00:00 TS -14.74 113.14 680 680 ______P__P__P_ -1 -14.73 113.03 20 20 1003 -14.75 113.03 TC 25 1003 -14.75 113.34 TC 25 1003 14 275
1976 SI WA 22:00:00 TS -14.72 112.90 20 1003 bom 686 686 ______O__P__P_ -1 -14.70 112.80 20 20 1003 1.00 -14.73 112.77 TC 25 1003 -14.73 113.12 TC 25 1003 14 274
1976 SI WA 1976-03-03 00:00:00 TS -14.70 112.44 699 699 ______P__O__O_ -1 -14.69 112.31 20 20 1003 -14.70 112.30 TC 25 1003 -14.70 112.70 TC 25 1003 13 273
1976 SI WA 01:00:00 TS -14.69 112.24 20 1003 bom 705 705 ______O__P__P_ -1 -14.70 112.10 20 20 1003 1.00 -14.68 112.11 TC 25 1003 -14.68 112.51 TC 25 1003 10 274
1976 SI WA 03:00:00 TS -14.66 111.93 705 705 ______P__P__P_ -1 -14.71 111.82 20 20 1003 -14.64 111.80 TC 25 1003 -14.64 112.16 TC 25 1003 9 275
1976 SI WA 04:00:00 TS -14.65 111.79 20 1003 bom 705 694 ______O__P__P_ -1 -14.70 111.70 20 20 1003 1.00 -14.63 111.66 TC 25 1003 -14.63 112.00 TC 25 1003 8 278
1976 SI WA 06:00:00 TS -14.61 111.51 694 694 ______P__O__O_ -1 -14.63 111.43 20 20 1003 -14.60 111.40 TC 25 1003 -14.60 111.70 TC 25 1003 8 278
1976 SI WA 07:00:00 TS -14.60 111.37 20 1003 bom 695 695 ______O__P__P_ -1 -14.60 111.30 20 20 1003 1.00 -14.59 111.26 TC 25 1003 -14.59 111.56 TC 25 1003 8 273
1976 SI WA 09:00:00 TS -14.59 111.10 697 697 ______P__P__P_ -1 -14.59 111.03 20 20 1003 -14.59 110.99 TC 25 1003 -14.59 111.29 TC 25 1003 8 270
1976 SI WA 10:00:00 TS -14.60 110.97 20 1003 bom 698 698 ______O__P__P_ -1 -14.60 110.90 20 20 1003 1.00 -14.59 110.86 TC 25 1003 -14.59 111.16 TC 25 1003 8 269
1976 SI WA 12:00:00 TS -14.60 110.71 702 702 ______P__O__O_ -1 -14.60 110.63 20 20 1003 -14.60 110.60 TC 25 1003 -14.60 110.90 TC 25 1003 8 269
1976 SI WA 13:00:00 TS -14.60 110.58 20 1003 bom 704 704 ______O__P__P_ -1 -14.60 110.50 20 20 1003 1.00 -14.60 110.46 TC 25 1003 -14.60 110.77 TC 25 1003 8 269
1976 SI WA 15:00:00 TS -14.60 110.31 710 710 ______P__P__P_ -1 -14.60 110.23 20 20 1003 -14.61 110.19 TC 25 1003 -14.61 110.50 TC 25 1003 8 269
1976 SI WA 16:00:00 TS -14.61 110.18 20 1003 bom 713 713 ______O__P__P_ -1 -14.60 110.10 20 20 1003 1.00 -14.61 110.06 TC 25 1003 -14.61 110.37 TC 25 1003 8 270
1976 SI WA 18:00:00 TS -14.60 109.91 719 719 ______P__O__O_ -1 -14.61 109.83 20 20 1003 -14.60 109.80 TC 25 1003 -14.60 110.10 TC 25 1003 8 272
1976 SI WA 19:00:00 TS -14.59 109.77 20 1003 bom 721 717 ______O__P__P_ -1 -14.60 109.70 20 20 1003 1.00 -14.59 109.67 TC 25 1003 -14.59 109.96 TC 25 1003 8 278
1976 SI WA 21:00:00 TS -14.54 109.50 717 717 ______P__P__P_ -1 -14.53 109.43 20 20 1003 -14.55 109.41 TC 25 1003 -14.55 109.67 TC 25 1003 8 280
1976 SI WA 22:00:00 TS -14.52 109.38 20 1003 bom 719 719 ______O__P__P_ -1 -14.50 109.30 20 20 1003 1.00 -14.53 109.30 TC 25 1003 -14.53 109.54 TC 25 1003 7 278
1976 SI WA 1976-03-04 00:00:00 TS -14.50 109.16 724 726 ______P__O__O_ -1 -14.49 109.08 20 20 1003 -14.50 109.10 TC 25 1003 -14.50 109.30 TC 25 1003 6 275
1976 SI WA 01:00:00 TS -14.50 109.08 20 1003 bom 726 726 ______O__P__P_ -1 -14.50 109.00 20 20 1003 1.00 -14.49 109.03 TC 25 1003 -14.49 109.21 TC 25 1003 4 271
1976 SI WA 03:00:00 TS -14.49 108.97 729 729 ______P__P__P_ -1 -14.50 108.93 20 20 1003 -14.49 108.92 TC 25 1003 -14.49 109.06 TC 25 1003 3 270
1976 SI WA 04:00:00 TS -14.50 108.92 20 1003 bom 732 732 ______O__P__P_ -1 -14.50 108.90 20 20 1003 1.00 -14.49 108.88 TC 25 1003 -14.49 109.00 TC 25 1003 3 268
1976 SI WA 06:00:00 TS -14.50 108.82 735 735 ______P__O__O_ -1 -14.50 108.76 20 20 1003 -14.50 108.80 TC 25 1003 -14.50 108.90 TC 25 1003 3 269
1976 SI WA 07:00:00 TS -14.50 108.77 20 1003 bom 735 735 ______O__P__P_ -1 -14.50 108.70 20 20 1003 1.00 -14.50 108.74 TC 25 1002 -14.50 108.86 TC 25 1002 3 270
1976 SI WA 09:00:00 TS -14.50 108.68 738 738 ______P__P__P_ -1 -14.50 108.63 20 23 1002 -14.50 108.64 TC 25 1002 -14.50 108.79 TC 25 1002 2 270
1976 SI WA 10:00:00 TS -14.50 108.65 25 1002 bom 741 741 ______O__P__P_ -1 -14.50 108.60 20 25 1002 1.50 -14.50 108.58 TC 25 1002 -14.50 108.76 TC 25 1002 2 270
1976 SI WA 12:00:00 TS -14.50 108.58 741 741 ______P__O__O_ -1 -14.50 108.53 20 25 1002 -14.50 108.50 TC 25 1002 -14.50 108.70 TC 25 1002 2 269
1976 SI WA 13:00:00 TS -14.50 108.55 25 1002 bom 745 745 ______O__P__P_ -1 -14.50 108.50 20 25 1002 1.50 -14.50 108.47 TC 25 1001 -14.50 108.66 TC 25 1001 2 267
1976 SI WA 15:00:00 TS -14.50 108.48 745 745 ______P__P__P_ -1 -14.50 108.43 20 25 1001 -14.51 108.44 TC 27 1001 -14.51 108.59 TC 27 1001 2 267
1976 SI WA 16:00:00 TS -14.51 108.46 25 1001 bom 745 745 ______O__P__P_ -1 -14.50 108.40 20 25 1001 2.00 -14.51 108.42 TC 28 1000 -14.51 108.56 TC 28 1000 1 272
1976 SI WA 18:00:00 TS -14.50 108.43 748 748 ______P__O__O_ -1 -14.51 108.39 20 25 1000 -14.50 108.40 TC 30 1000 -14.50 108.50 TC 30 1000 1 294
1976 SI WA 19:00:00 TS -14.49 108.43 25 1000 bom 748 738 ______O__P__P_ -1 -14.50 108.40 20 25 1000 2.00 -14.48 108.40 TC 30 999 -14.48 108.49 TC 30 999 1 339
1976 SI WA 21:00:00 TS -14.44 108.43 738 738 ______P__P__P_ -1 -14.43 108.41 20 25 999 -14.44 108.39 TC 30 999 -14.44 108.47 TC 30 999 2 0
1976 SI WA 22:00:00 TS -14.42 108.41 25 999 bom 738 738 ______O__P__P_ -1 -14.40 108.40 20 25 999 2.00 -14.42 108.38 TC 30 999 -14.42 108.46 TC 30 999 2 303
1976 SI WA 1976-03-05 00:00:00 TS -14.40 108.35 738 739 ______P__O__O_ -1 -14.39 108.36 20 25 999 -14.40 108.30 TC 30 999 -14.40 108.40 TC 30 999 2 275
1976 SI WA 01:00:00 TS -14.41 108.29 25 999 bom 739 739 ______O__P__P_ -1 -14.40 108.30 20 25 999 2.00 -14.41 108.22 TC 30 999 -14.41 108.35 TC 30 999 5 258
1976 SI WA 03:00:00 TS -14.45 108.08 751 750 ______P__P__P_ -1 -14.47 108.05 20 25 999 -14.44 108.00 TC 30 999 -14.44 108.20 TC 30 999 2 121
1976 SI WA 04:00:00 TS -14.46 108.39 25 999 bom 748 745 ______O__P__P_ -1 -14.50 107.90 20 25 999 2.00 -14.46 107.87 TC 30 999 -14.46 108.11 TC 30 999 3 100
1976 SI WA 06:00:00 TS -14.48 108.25 750 750 O_____P__O__O_ jtwc_sh SH181976 -14.40 109.90 -1 -14.51 107.63 20 25 999 -14.50 107.60 TC 30 999 -14.50 107.90 TC 30 999 12 267
1976 SI WA 07:00:00 TS -14.50 107.75 25 999 bom 753 753 P_____O__P__P_ SH181976 -14.38 109.82 -1 -14.50 107.50 20 25 999 2.00 -14.50 107.48 TC 30 999 -14.50 107.78 TC 30 999 18 269
1976 SI WA 09:00:00 TS -14.50 107.32 759 759 P_____P__P__P_ SH181976 -14.33 109.66 -1 -14.50 107.23 20 25 999 -14.50 107.23 TC 30 999 -14.50 107.50 TC 30 999 11 270
1976 SI WA 10:00:00 TS -14.50 107.19 25 999 bom 761 761 P_____O__P__P_ SH181976 -14.31 109.58 -1 -14.50 107.10 20 25 999 2.00 -14.50 107.12 TC 30 999 -14.50 107.36 TC 30 999 7 270
1976 SI WA 12:00:00 TS -14.50 106.96 765 767 P_____P__O__O_ SH181976 -14.27 109.42 -1 -14.49 106.89 20 25 999 -14.50 106.90 TC 30 999 -14.50 107.10 TC 30 999 6 268
1976 SI WA 13:00:00 TS -14.51 106.87 25 999 bom 767 767 P_____O__P__P_ SH181976 -14.26 109.33 -1 -14.50 106.80 20 25 999 2.00 -14.51 106.80 TC 30 998 -14.51 107.00 TC 30 998 6 259
1976 SI WA 15:00:00 TS -14.55 106.68 782 782 P_____P__P__P_ SH181976 -14.23 109.15 -1 -14.57 106.59 20 28 998 -14.54 106.63 TC 32 998 -14.54 106.83 TC 32 998 5 256
1976 SI WA 16:00:00 TS -14.57 106.60 30 998 bom 783 783 P_____O__P__P_ SH181976 -14.21 109.06 -1 -14.60 106.50 20 30 998 2.50 -14.56 106.55 TC 33 997 -14.56 106.75 TC 33 997 5 258
1976 SI WA 18:00:00 TS -14.60 106.45 785 787 P_____P__O__O_ SH181976 -14.20 108.85 -1 -14.60 106.36 20 30 997 -14.60 106.40 TC 35 997 -14.60 106.60 TC 35 997 4 261
1976 SI WA 19:00:00 TS -14.61 106.38 30 997 bom 787 787 P_____O__P__P_ SH181976 -14.19 108.74 -1 -14.60 106.30 20 30 997 2.50 -14.61 106.33 TC 35 996 -14.61 106.51 TC 35 996 4 257
1976 SI WA 21:00:00 TS -14.65 106.23 803 803 P_____P__P__P_ SH181976 -14.19 108.51 -1 -14.67 106.17 20 33 995 -14.64 106.19 TC 37 995 -14.64 106.33 TC 37 996 4 254
1976 SI WA 22:00:00 TS -14.67 106.16 35 995 bom 803 803 P_____O__P__P_ SH181976 -14.20 108.38 -1 -14.70 106.10 30 35 995 3.00 -14.66 106.13 TC 38 995 -14.66 106.25 TC 38 995 4 257
1976 SI WA 1976-03-06 00:00:00 TS -14.70 106.02 808 808 P_____P__O__O_ SH181976 -14.22 108.11 -1 -14.70 105.97 30 38 994 -14.70 106.00 TC 40 994 -14.70 106.10 TC 40 995 4 257
1976 SI WA 01:00:00 TS -14.72 105.96 40 994 bom 808 808 P_____O__P__P_ SH181976 -14.24 107.96 -1 -14.70 105.90 30 40 994 3.00 -14.72 105.93 TC 40 993 -14.72 106.04 TC 40 994 4 249
1976 SI WA 03:00:00 TS -14.77 105.83 824 805 P_____P__P__P_ SH181976 -14.29 107.64 -1 -14.75 105.76 30 40 992 -14.78 105.79 TC 42 992 -14.78 105.93 TC 42 993 3 91
1976 SI WA 04:00:00 TS -14.72 106.11 40 992 bom 805 803 P_____O__P__P_ SH181976 -14.32 107.47 -1 -14.80 105.70 30 40 992 3.00 -14.82 105.72 TC 43 992 -14.82 105.88 TC 43 993 6 85
1976 SI WA 06:00:00 TS -14.75 106.15 805 803 O_____P__O__O_ jtwc_sh SH181976 -14.40 107.10 -1 -14.94 105.63 30 43 991 -14.90 105.60 TC 45 991 -14.90 105.80 TC 45 992 1 117
1976 SI WA 07:00:00 TS -14.75 106.18 45 991 bom 803 803 P_____O__P__P_ SH181976 -14.45 106.90 -1 -15.00 105.60 30 45 991 3.00 -14.94 105.55 TC 45 990 -14.94 105.76 TC 45 991 3 241
1976 SI WA 09:00:00 TS -14.81 106.03 819 819 P_____P__P__P_ SH181976 -14.56 106.50 -1 -15.06 105.53 30 45 990 -15.04 105.46 TC 46 990 -15.03 105.69 TC 47 990 5 244
1976 SI WA 10:00:00 TS -14.87 105.92 45 990 bom 832 832 P_____O__P__P_ SH181976 -14.63 106.31 -1 -15.10 105.50 30 45 990 3.00 -15.10 105.43 TC 46 990 -15.09 105.66 TC 48 990 7 235
1976 SI WA 12:00:00 TS -15.01 105.73 848 848 O_____P__PO_O_ jtwc_sh SH181976 -14.80 106.00 -1 -15.23 105.43 30 45 988 -15.21 105.36 TC 47 989 -14.80 106.00 2 -15.20 105.60 TC 50 989 7 228
1976 SI WA 13:00:00 TS -15.09 105.66 45 988 bom 859 859 P_____O__PP_P_ SH181976 -14.90 105.90 -1 -15.30 105.40 30 45 988 3.00 -15.27 105.33 TC 47 989 -14.92 105.93 2 -15.26 105.57 TC 50 988 6 214
1976 SI WA 15:00:00 TS -15.27 105.55 884 887 P_____P__PP_P_ SH181976 -15.13 105.75 -1 -15.43 105.33 30 48 988 -15.40 105.28 TC 48 988 -15.16 105.80 2 -15.40 105.50 TC 50 988 6 209
1976 SI WA 16:00:00 TS -15.36 105.51 50 988 bom 897 897 P_____O__PP_P_ SH181976 -15.26 105.70 -1 -15.50 105.30 30 50 988 3.00 -15.47 105.26 TC 49 988 -15.27 105.73 2 -15.47 105.47 TC 50 988 6 206
1976 SI WA 18:00:00 TS -15.54 105.42 911 922 O_____P__OP_O_ jtwc_sh SH181976 -15.50 105.60 -1 -15.63 105.23 30 50 988 -15.60 105.20 TC 50 988 -15.50 105.58 2 -15.60 105.40 TC 50 988 6 206
1976 SI WA 19:00:00 TS -15.63 105.37 50 988 bom 922 922 P_____O__PP_P_ SH181976 -15.61 105.52 -1 -15.70 105.20 30 50 988 3.00 -15.66 105.18 TC 50 988 -15.61 105.51 2 -15.65 105.38 TC 50 988 6 209
1976 SI WA 21:00:00 TS -15.80 105.27 947 947 P_____P__PP_P_ SH181976 -15.82 105.36 -1 -15.84 105.13 30 50 988 -15.78 105.13 TC 50 988 -15.82 105.35 2 -15.73 105.33 TC 50 988 6 211
1976 SI WA 22:00:00 TS -15.88 105.22 50 988 bom 960 960 P_____O__PP_P_ SH181976 -15.92 105.28 -1 -15.90 105.10 30 50 988 3.50 -15.85 105.10 TC 50 988 -15.92 105.27 2 -15.78 105.30 TC 50 988 6 217
1976 SI WA 1976-03-07 00:00:00 TS -16.03 105.09 973 973 O_____P__OO_O_ jtwc_sh SH181976 -16.10 105.10 -1 -15.96 105.05 30 50 988 -16.00 105.00 TC 50 988 -16.10 105.10 2 -15.90 105.20 TC 50 988 6 221
1976 SI WA 01:00:00 TS -16.10 105.01 50 988 bom 986 986 P_____O__PP_P_ SH181976 -16.18 105.01 -1 -16.00 105.00 30 50 988 3.50 -16.09 104.92 TC 50 988 -16.18 105.01 2 -15.99 105.12 TC 50 988 7 227
1976 SI WA 03:00:00 TS -16.27 104.82 1011 1011 P_____P__PP_P_ SH181976 -16.32 104.81 -1 -16.18 104.82 30 50 988 -16.29 104.72 TC 50 988 -16.33 104.82 2 -16.19 104.92 TC 50 988 8 228
1976 SI WA 04:00:00 TS -16.36 104.71 50 988 bom 1024 1024 P_____O__PP_P_ SH181976 -16.39 104.71 -1 -16.30 104.70 30 50 988 3.50 -16.40 104.61 TC 50 988 -16.40 104.72 2 -16.29 104.81 TC 50 988 8 230
1976 SI WA 06:00:00 TS -16.53 104.49 1039 1039 O_____P__OP_O_ jtwc_sh SH181976 -16.50 104.50 -1 -16.57 104.43 30 50 988 -16.60 104.40 TC 50 988 -16.52 104.51 2 -16.50 104.60 TC 50 988 8 231
1976 SI WA 07:00:00 TS -16.61 104.39 50 988 bom 1052 1052 P_____O__PP_P_ SH181976 -16.56 104.40 -1 -16.70 104.30 30 50 988 3.50 -16.70 104.31 TC 48 988 -16.57 104.41 2 -16.60 104.51 TC 49 988 7 231
1976 SI WA 09:00:00 TS -16.76 104.19 1079 1079 P_____P__PP_P_ SH181976 -16.66 104.19 -1 -16.91 104.09 30 50 989 -16.89 104.14 TC 45 991 -16.67 104.20 2 -16.78 104.34 TC 47 990 7 232
1976 SI WA 10:00:00 TS -16.83 104.10 50 990 bom 1081 1081 P_____O__PP_P_ SH181976 -16.71 104.09 -1 -17.00 104.00 30 50 990 3.50 -16.97 104.06 TC 43 991 -16.72 104.10 2 -16.86 104.26 TC 46 990 6 234
1976 SI WA 12:00:00 TS -16.94 103.93 1097 1108 O_____P__OO_O_ jtwc_sh SH181976 -16.80 103.90 -1 -17.15 103.87 30 50 992 -17.10 103.90 TC 40 994 -16.80 103.90 2 -17.00 104.10 TC 45 992 6 236
1976 SI WA 13:00:00 TS -16.99 103.84 50 994 bom 1111 1111 P_____O__PP_P_ SH181976 -16.86 103.81 -1 -17.20 103.80 30 50 994 3.50 -17.14 103.81 TC 40 994 -16.85 103.80 2 -17.05 104.02 TC 44 992 6 244
1976 SI WA 15:00:00 TS -17.06 103.67 1125 1125 P_____P__PP_P_ SH181976 -16.96 103.65 -1 -17.21 103.60 30 46 994 -17.18 103.64 TC 40 994 -16.94 103.62 2 -17.13 103.85 TC 42 993 5 248
1976 SI WA 16:00:00 TS -17.09 103.58 45 995 bom 1127 1127 P_____O__PP_P_ SH181976 -17.02 103.57 -1 -17.20 103.50 30 45 995 3.50 -17.19 103.56 TC 40 994 -16.98 103.53 2 -17.16 103.77 TC 41 993 5 253
1976 SI WA 18:00:00 TS -17.14 103.42 1133 1133 O_____P__OP_O_ jtwc_sh SH181976 -17.10 103.40 -1 -17.19 103.36 30 41 995 -17.20 103.40 TC 40 995 -17.05 103.34 2 -17.20 103.60 TC 40 994 5 253
1976 SI WA 19:00:00 TS -17.17 103.33 40 995 bom 1147 1147 P_____O__PP_P_ SH181976 -17.13 103.30 -1 -17.20 103.30 30 40 995 3.50 -17.22 103.33 TC 38 995 -17.08 103.25 2 -17.22 103.51 TC 39 994 5 253
1976 SI WA 21:00:00 TS -17.21 103.16 1151 1154 P_____P__PP_P_ SH181976 -17.17 103.10 -1 -17.27 103.17 30 40 996 -17.26 103.20 TC 35 997 -17.14 103.07 2 -17.26 103.34 TC 37 995 5 255
1976 SI WA 22:00:00 TS -17.23 103.08 40 997 bom 1154 1154 P_____O__PP_P_ SH181976 -17.19 103.00 -1 -17.30 103.10 30 40 997 3.00 -17.27 103.14 TC 33 997 -17.16 102.98 2 -17.28 103.26 TC 36 995 5 261
1976 SI WA 1976-03-08 00:00:00 TS -17.25 102.91 1171 1171 O_____P__OO_O_ jtwc_sh SH181976 -17.20 102.80 -1 -17.31 102.97 30 36 998 -17.30 103.00 TC 30 999 -17.20 102.80 2 -17.30 103.10 TC 35 997 5 264
1976 SI WA 01:00:00 TS -17.26 102.83 35 999 bom 1175 1175 P_____O__PP_P_ SH181976 -17.21 102.71 -1 -17.30 102.90 30 35 999 3.00 -17.31 102.92 TC 30 999 -17.21 102.71 2 -17.31 103.03 TC 34 997 4 268
1976 SI WA 03:00:00 TS -17.26 102.68 1179 1179 P_____P__PP_P_ SH181976 -17.21 102.55 -1 -17.30 102.77 30 31 999 -17.31 102.76 TC 30 999 -17.23 102.53 2 -17.31 102.90 TC 32 998 4 269
1976 SI WA 04:00:00 TS -17.26 102.60 30 999 bom 1182 1182 P_____O__PP_P_ SH181976 -17.21 102.47 -1 -17.30 102.70 20 30 999 3.00 -17.31 102.67 TC 30 999 -17.24 102.44 2 -17.31 102.84 TC 31 998 5 271
1976 SI WA 06:00:00 TS -17.26 102.43 1190 1190 O_____P__OP_O_ jtwc_sh SH181976 -17.20 102.30 -1 -17.30 102.51 20 30 999 -17.30 102.50 TC 30 999 -17.24 102.26 2 -17.30 102.70 TC 30 999 5 271
1976 SI WA 07:00:00 TS -17.26 102.34 30 999 bom 1194 1194 P_____O__PP_P_ SH181976 -17.20 102.20 -1 -17.30 102.40 20 30 999 2.50 -17.30 102.42 TC 29 999 -17.23 102.17 2 -17.30 102.63 TC 29 999 5 270
1976 SI WA 09:00:00 TS -17.26 102.15 1198 1202 P_____P__PP_P_ SH181976 -17.20 102.00 -1 -17.30 102.19 20 30 999 -17.31 102.27 TC 27 1001 -17.22 101.99 2 -17.31 102.47 TC 27 1000 5 270
1976 SI WA 10:00:00 TS -17.26 102.06 30 1000 bom 1202 1201 P_____O__PP_P_ SH181976 -17.20 101.90 -1 -17.30 102.10 20 30 1000 2.50 -17.31 102.19 TC 26 1001 -17.22 101.89 2 -17.31 102.39 TC 26 1000 5 271
1976 SI WA 12:00:00 TS -17.25 101.88 1201 1201 O_____P__OO_O_ jtwc_sh SH181976 -17.20 101.70 -1 -17.30 101.98 20 30 1002 -17.30 102.00 TC 25 1003 -17.20 101.70 2 -17.30 102.20 TC 25 1001 5 272
1976 SI WA 13:00:00 TS -17.25 101.79 30 1003 bom 1205 1205 P_____O__PP_P_ SH181976 -17.20 101.62 -1 -17.30 101.90 20 30 1003 2.50 -17.29 101.88 TC 25 1002 -17.20 101.61 2 -17.29 102.10 TC 25 1001 6 272
1976 SI WA 15:00:00 TS -17.24 101.58 1214 1214 P_____P__PP_P_ SH181976 -17.21 101.47 -1 -17.31 101.64 20 26 1003 -17.27 101.62 TC 25 1002 -17.20 101.41 2 -17.26 101.87 TC 25 1001 6 273
1976 SI WA 16:00:00 TS -17.23 101.47 25 1003 bom 1219 1219 P_____O__PP_P_ SH181976 -17.21 101.38 -1 -17.30 101.50 20 25 1003 2.50 -17.25 101.48 TC 25 1002 -17.20 101.32 2 -17.24 101.75 TC 25 1001 7 276
1976 SI WA 18:00:00 TS -17.21 101.24 1234 1234 O_____P__OP_O_ jtwc_sh SH181976 -17.20 101.20 -1 -17.24 101.23 20 25 1002 -17.20 101.20 TC 25 1002 -17.19 101.11 2 -17.20 101.50 TC 25 1002 7 278
1976 SI WA 19:00:00 TS -17.19 101.12 25 1002 bom 1239 1239 P_____O__PP_P_ SH181976 -17.19 101.09 -1 -17.20 101.10 20 25 1002 2.00 -17.17 101.08 TC 25 1002 -17.19 101.00 2 -17.19 101.38 TC 25 1002 7 279
1976 SI WA 21:00:00 TS -17.15 100.87 1239 1239 P_____P__PP_P_ SH181976 -17.16 100.83 -1 -17.13 100.83 20 25 1002 -17.11 100.83 TC 25 1002 -17.16 100.78 2 -17.16 101.14 TC 25 1002 7 280
1976 SI WA 22:00:00 TS -17.13 100.74 25 1003 bom 1250 1250 P_____O__PP_P_ SH181976 -17.15 100.69 -1 -17.10 100.70 20 25 1003 2.00 -17.07 100.70 TC 25 1002 -17.15 100.66 2 -17.14 101.00 TC 25 1002 8 281
1976 SI WA 1976-03-09 00:00:00 TS -17.07 100.46 1261 1265 O_____P__OO_O_ jtwc_sh SH181976 -17.10 100.40 -1 -17.03 100.45 20 25 1003 -17.00 100.40 TC 25 1003 -17.10 100.40 2 -17.10 100.70 TC 25 1002 9 281
1976 SI WA 01:00:00 TS -17.05 100.30 25 1003 bom 1260 1260 P_____O__PP_P_ SH181976 -17.08 100.26 -1 -17.00 100.30 20 25 1003 2.00 -16.97 100.22 TC 25 1002 -17.07 100.26 2 -17.08 100.52 TC 25 1001 10 280
1976 SI WA 03:00:00 TS -16.99 99.96 1274 1279 P_____P__PP_P_ SH181976 -17.02 99.97 -1 -16.93 99.92 20 25 1002 -16.92 99.82 TC 27 1002 -17.00 99.97 2 -17.02 100.12 TC 25 1001 10 281
1976 SI WA 04:00:00 TS -16.95 99.78 25 1002 bom 1284 1279 P_____O__PP_P_ SH181976 -16.99 99.81 -1 -16.90 99.70 20 25 1002 2.00 -16.88 99.61 TC 28 1001 -16.96 99.81 2 -16.99 99.91 TC 25 1001 11 282
1976 SI WA 06:00:00 TS -16.87 99.40 1294 1290 O_____P__OP_O_ jtwc_sh SH181976 -16.90 99.50 -1 -16.85 99.22 20 25 1001 -16.80 99.20 TC 30 1001 -16.86 99.49 2 -16.90 99.50 TC 25 1001 11 284
1976 SI WA 07:00:00 TS -16.81 99.22 25 1001 bom 1296 1296 P_____O__PP_P_ SH181976 -16.84 99.34 -1 -16.80 99.00 20 25 1001 1.50 -16.74 99.00 TC 29 1001 -16.81 99.33 2 -16.84 99.30 TC 25 1001 11 291
1976 SI WA 09:00:00 TS -16.67 98.87 1303 1299 P_____P__PP_P_ SH181976 -16.71 99.00 -1 -16.59 98.66 20 25 1001 -16.61 98.61 TC 27 1002 -16.69 99.00 2 -16.71 98.92 TC 25 1001 11 293
1976 SI WA 10:00:00 TS -16.60 98.69 25 1002 bom 1305 1305 P_____O__PP_P_ SH181976 -16.64 98.83 -1 -16.50 98.50 20 25 1002 1.50 -16.54 98.43 TC 26 1002 -16.63 98.83 2 -16.64 98.74 TC 25 1001 11 292
1976 SI WA 12:00:00 TS -16.47 98.35 1320 1311 O_____P__OO_O_ jtwc_sh SH181976 -16.50 98.50 -1 -16.43 98.08 20 25 1002 -16.40 98.10 TC 25 1003 -16.50 98.50 2 -16.50 98.40 TC 25 1002 10 291
1976 SI WA 13:00:00 TS -16.41 98.19 25 1003 bom 1317 1317 P_____O__PP_P_ SH181976 -16.44 98.35 -1 -16.40 97.90 20 25 1003 1.50 -16.35 97.96 TC 25 1003 -16.44 98.34 2 -16.43 98.24 TC 25 1002 9 294
1976 SI WA 15:00:00 TS -16.29 97.91 1327 1325 P_____P__PP_P_ SH181976 -16.31 98.05 -1 -16.27 97.68 20 25 1003 -16.25 97.71 TC 25 1003 -16.31 98.03 2 -16.29 97.96 TC 25 1002 9 296
1976 SI WA 16:00:00 TS -16.23 97.79 25 1003 bom 1325 1325 P_____O__PP_P_ SH181976 -16.24 97.90 -1 -16.20 97.60 20 25 1003 1.50 -16.20 97.60 TC 25 1003 -16.25 97.87 2 -16.23 97.83 TC 25 1002 8 298
1976 SI WA 18:00:00 TS -16.09 97.53 1337 1335 O_____P__OP_O_ jtwc_sh SH181976 -16.10 97.60 -1 -16.07 97.40 20 25 1003 -16.10 97.40 TC 25 1003 -16.10 97.55 2 -16.10 97.60 TC 25 1003 9 298
1976 SI WA 19:00:00 TS -16.03 97.39 25 1003 bom 1335 1335 P_____O__PP_P_ SH181976 -16.02 97.44 -1 -16.00 97.30 20 25 1003 1.50 -16.04 97.29 TC 24 1003 -16.03 97.39 2 -16.05 97.49 TC 25 1003 9 298
1976 SI WA 21:00:00 TS -15.89 97.13 1348 1347 P_____P__PP_P_ SH181976 -15.86 97.10 -1 -15.86 97.10 20 25 1003 -15.91 97.09 TC 22 1003 -15.87 97.08 2 -15.96 97.29 TC 25 1003 9 299
1976 SI WA 22:00:00 TS -15.82 96.99 25 1004 bom 1347 1346 P_____O__PP_P_ SH181976 -15.78 96.93 -1 -15.80 97.00 20 25 1004 1.50 -15.85 96.99 TC 21 1003 -15.78 96.92 2 -15.91 97.19 TC 25 1003 9 300
1976 SI WA 1976-03-10 00:00:00 TS -15.67 96.73 1360 1352 O_____P__OO_O_ jtwc_sh SH181976 -15.60 96.60 -1 -15.74 96.80 20 21 1004 -15.70 96.80 TC 20 1004 -15.60 96.60 2 -15.80 97.00 TC 25 1003 9 301
1976 SI WA 01:00:00 TS -15.59 96.61 20 1004 bom 1360 1359 P_____O__PP_P_ SH181976 -15.51 96.45 -1 -15.70 96.70 20 20 1004 1.50 -15.62 96.70 TC 20 1003 -15.49 96.45 2 -15.73 96.90 TC 25 1002 9 306
1976 SI WA 03:00:00 TS -15.41 96.36 1359 1359 P_____P__PP_P_ SH181976 -15.31 96.15 -1 -15.51 96.50 20 20 1003 -15.46 96.50 TC 22 1003 -15.26 96.14 2 -15.57 96.70 TC 25 1002 9 309
1976 SI WA 04:00:00 TS -15.30 96.23 20 1003 bom 1367 1367 P_____O__PP_P_ SH181976 -15.21 96.00 -1 -15.40 96.40 20 20 1003 1.50 -15.38 96.40 TC 23 1002 -15.14 95.99 2 -15.49 96.60 TC 25 1002 10 310
1976 SI WA 06:00:00 TS -15.10 95.98 1368 1368 O_____P__OP_O_ jtwc_sh SH181976 -15.00 95.70 -1 -15.20 96.20 20 20 1002 -15.20 96.20 TC 25 1002 -14.90 95.68 2 -15.30 96.40 TC 25 1002 10 311
1976 SI WA 07:00:00 TS -14.99 95.86 20 1002 bom 1368 1368 P_____O__PP_P_ SH181976 -14.88 95.54 -1 -15.10 96.10 20 20 1002 1.50 -15.10 96.12 TC 25 1001 -14.78 95.52 2 -15.20 96.32 TC 25 1001 10 312
1976 SI WA 09:00:00 TS -14.77 95.61 1379 1371 P_____P__PP_P_ SH181976 -14.63 95.21 -1 -14.90 95.90 20 20 1001 -14.90 95.96 TC 27 1001 -14.56 95.20 2 -15.00 96.15 TC 27 1001 10 312
1976 SI WA 10:00:00 TS -14.66 95.48 20 1001 bom 1380 1373 P_____O__PP_P_ SH181976 -14.51 95.05 -1 -14.80 95.80 20 20 1001 1.00 -14.80 95.86 TC 28 1000 -14.46 95.04 2 -14.90 96.06 TC 28 1000 10 307
1976 SI WA 12:00:00 TS -14.47 95.19 1391 1391 O_____P__OO_O_ jtwc_sh SH181976 -14.30 94.70 -1 -14.60 95.64 20 20 1000 -14.60 95.60 TC 30 1000 -14.30 94.70 2 -14.70 95.80 TC 30 1000 10 303
1976 SI WA 13:00:00 TS -14.38 95.02 20 1000 bom 1402 1402 P_____O__PP_P_ SH181976 -14.22 94.53 -1 -14.50 95.50 20 20 1000 1.00 -14.50 95.42 TC 30 1000 -14.24 94.52 2 -14.61 95.63 TC 30 1000 12 293
1976 SI WA 15:00:00 TS -14.23 94.62 1417 1417 P_____P__PP_P_ SH181976 -14.09 94.17 -1 -14.29 94.99 20 20 1000 -14.32 94.99 TC 30 1000 -14.15 94.16 2 -14.43 95.23 TC 30 1000 13 289
1976 SI WA 16:00:00 TS -14.17 94.40 20 1000 bom 1431 1430 P_____O__PP_P_ SH181976 -14.05 93.98 -1 -14.20 94.70 20 20 1000 1.00 -14.24 94.74 TC 30 1000 -14.12 93.97 2 -14.35 95.00 TC 30 1000 13 283
1976 SI WA 18:00:00 TS -14.07 93.94 1459 1457 O_____P__OP_O_ jtwc_sh SH181976 -14.00 93.60 -1 -14.05 94.17 20 20 1000 -14.10 94.20 TC 30 1001 -14.08 93.59 2 -14.20 94.50 TC 30 1000 14 281
1976 SI WA 19:00:00 TS -14.04 93.70 20 1001 bom 1464 1464 P_____O__PP_P_ SH181976 -14.00 93.41 -1 -14.00 93.90 20 20 1001 1.00 -14.04 93.90 TC 29 1001 -14.07 93.40 2 -14.13 94.22 TC 29 1000 14 276
1976 SI WA 21:00:00 TS -14.00 93.23 1500 1500 P_____P__PP_P_ SH181976 -14.02 93.01 -1 -13.92 93.31 20 20 1001 -13.96 93.26 TC 27 1002 -14.08 93.00 2 -14.01 93.63 TC 27 1001 14 276
1976 SI WA 22:00:00 TS -13.97 93.00 20 1002 bom 1515 1515 P_____O__PP_P_ SH181976 -14.04 92.81 -1 -13.90 93.00 20 20 1002 1.00 -13.94 92.95 TC 26 1002 -14.08 92.80 2 -13.97 93.34 TC 26 1001 14 275
1976 SI WA 1976-03-11 00:00:00 TS -13.94 92.50 1537 1537 O_____P__OO_O_ jtwc_sh SH181976 -14.10 92.40 -1 -13.89 92.36 20 20 1002 -13.90 92.40 TC 25 1003 -14.10 92.40 2 -13.90 92.80 TC 25 1002 14 277
1976 SI WA 01:00:00 TS -13.89 92.29 20 1003 bom 1547 1547 ______O__P__P_ SH181976 -1 -13.90 92.10 20 20 1003 1.00 -13.89 92.20 TC 25 1003 2 -13.88 92.57 TC 25 1002 11 276
1976 SI WA 03:00:00 TS -13.89 91.95 1568 1568 ______P__P__P_ SH181976 -1 -13.90 91.80 20 20 1003 -13.88 91.88 TC 25 1003 2 -13.88 92.18 TC 25 1002 9 270
1976 SI WA 04:00:00 TS -13.89 91.82 20 1003 bom 1574 1574 ______O__P__P_ SH181976 -1 -13.90 91.70 20 20 1003 1.00 -13.89 91.74 TC 25 1003 2 -13.88 92.00 TC 25 1002 7 268
1976 SI WA 06:00:00 TS -13.90 91.57 1585 1590 ______P__O__O_ -1 -13.90 91.50 20 20 1003 -13.90 91.50 TC 25 1003 2 -13.90 91.70 TC 25 1003 7 269
1976 SI WA 07:00:00 TS -13.90 91.45 20 1003 bom 1596 1596 ______O__P__P_ -1 -13.90 91.40 20 20 1003 1.00 -13.90 91.37 TC 25 1003 2 -13.90 91.57 TC 25 1003 7 271
1976 SI WA 09:00:00 TS -13.89 91.21 1608 1608 ______P__P__P_ -1 -13.90 91.14 20 20 1003 -13.89 91.12 TC 25 1003 2 -13.89 91.36 TC 25 1003 7 271
1976 SI WA 10:00:00 TS -13.89 91.08 20 1003 bom 1613 1613 ______O__P__P_ -1 -13.90 91.00 20 20 1003 1.00 -13.89 90.99 TC 25 1003 2 -13.89 91.25 TC 25 1003 8 270
1976 SI WA 12:00:00 TS -13.90 90.82 1631 1631 ______P__O__O_ -1 -13.89 90.75 20 20 1003 -13.90 90.70 TC 25 1003 -13.90 91.00 TC 25 1003 8 268
1976 SI WA 13:00:00 TS -13.91 90.65 20 1003 bom 1637 1637 ______O__P__P_ -1 -13.90 90.60 20 20 1003 1.00 -13.91 90.53 TC 24 1003 -13.91 90.83 TC 25 1003 11 264
1976 SI WA 15:00:00 TS -13.96 90.27 1671 1677 ______P__P__P_ -1 -13.97 90.22 20 20 1003 -13.95 90.14 TC 22 1003 -13.95 90.45 TC 25 1003 12 263
1976 SI WA 16:00:00 TS -13.98 90.05 20 1004 bom 1684 1684 ______O__P__P_ -1 -14.00 90.00 20 20 1004 1.00 -13.97 89.93 TC 21 1003 -13.97 90.24 TC 25 1003 13 266
1976 SI MM 18:00:00 TS -14.00 89.61 1716 1716 ______P__O__O_ -1 -14.01 89.53 20 20 1004 -14.00 89.50 TC 20 1004 -14.00 89.80 TC 25 1003 13 268
1976 SI MM 19:00:00 TS -14.01 89.39 20 1004 bom 1729 1729 ______O__P__P_ -1 -14.00 89.30 20 20 1004 1.00 -14.01 89.29 TC 19 1004 -14.01 89.59 TC 24 1003 12 269
1976 SI MM 21:00:00 TS -14.01 88.97 1756 1763 ______P__P__P_ -1 -14.00 88.90 20 20 1004 -14.01 88.85 TC 17 1005 -14.01 89.15 TC 22 1004 12 270
1976 SI MM 22:00:00 TS -14.01 88.75 20 1005 bom 1770 1770 ______O__P__P_ -1 -14.00 88.70 20 20 1005 1.00 -14.01 88.63 TC 16 1005 -14.01 88.93 TC 21 1004 13 271
1976 SI MM 1976-03-12 00:00:00 TS -14.00 88.31 1805 1805 ______P__O__O_ -1 -14.01 88.23 20 20 1005 -14.00 88.20 TC 15 1006 -14.00 88.50 TC 20 1005 13 271
1976 SI MM 01:00:00 TS -13.99 88.10 20 1006 bom 1819 1819 ______O__P__P_ -1 -14.00 88.00 20 20 1006 1.00 -13.99 87.99 TC 15 1006 -13.99 88.29 TC 19 1005 12 275
1976 SI MM 03:00:00 TS -13.95 87.69 1840 1840 ______P__P__P_ -1 -13.93 87.59 20 20 1006 -13.96 87.59 TC 15 1006 -13.96 87.89 TC 17 1005 12 277
1976 SI MM 04:00:00 TS -13.93 87.50 20 1006 bom 1855 1855 ______O__P__P_ -1 -13.90 87.40 20 20 1006 1.00 -13.94 87.39 TC 15 1006 -13.94 87.69 TC 16 1005 12 275
1976 SI MM 06:00:00 TS -13.90 87.10 1885 1885 ______P__O__O_ -1 -13.90 87.00 20 20 1006 -13.90 87.00 TC 15 1006 -13.90 87.30 TC 15 1006 12 274
1976 SI MM 07:00:00 TS -13.89 86.90 20 1006 bom 1900 1900 ______O__P__P_ -1 -13.90 86.80 20 20 1006 1.00 -13.88 86.80 TC 15 1006 -13.88 87.10 TC 15 1006 12 276
1976 SI MM 09:00:00 TS -13.84 86.51 1923 1923 ______P__P__P_ -1 -13.83 86.40 20 20 1006 -13.85 86.41 TC 15 1006 -13.85 86.71 TC 15 1006 12 277
1976 SI MM 10:00:00 TS -13.82 86.31 20 1006 bom 1939 1939 ______O__P__P_ -1 -13.80 86.20 20 20 1006 1.00 -13.83 86.21 TC 15 1006 -13.83 86.51 TC 15 1006 12 274
1976 SI MM 12:00:00 TS -13.80 85.90 1970 1970 ______P__O__O_ -1 -13.80 85.81 20 20 1006 -13.80 85.80 TC 15 1006 -13.80 86.10 TC 15 1006 12 273
1976 SI MM 13:00:00 TS -13.79 85.69 20 1006 bom 1986 1986 ______O__P__P_ -1 -13.80 85.60 20 20 1006 1.00 -13.79 85.59 TC 15 1006 -13.78 85.89 TC 15 1006 13 275
1976 SI MM 15:00:00 TS -13.75 85.25 2020 2020 ______P__P__P_ -1 -13.73 85.13 20 20 1006 -13.76 85.16 TC 15 1006 -13.75 85.46 TC 15 1006 13 276
1976 SI MM 16:00:00 TS -13.72 85.03 20 1007 bom 2036 2036 ______O__P__P_ -1 -13.70 84.90 20 20 1007 1.00 -13.74 84.94 TC 15 1006 -13.73 85.24 TC 15 1006 13 274
1976 SI MM 18:00:00 TS -13.70 84.60 2069 2069 ______P__O__O_ -1 -13.70 84.50 20 20 1007 -13.70 84.50 TC 15 1007 -13.70 84.80 TC 15 1006 12 274
1976 SI MM 19:00:00 TS -13.69 84.39 20 1007 bom 2086 2086 ______O__P__P_ -1 -13.70 84.30 20 20 1007 1.00 -13.67 84.28 TC 15 1007 -13.68 84.58 TC 15 1006 13 276
1976 SI MM 21:00:00 TS -13.63 83.93 2122 2122 ______P__P__P_ -1 -13.64 83.83 20 20 1007 -13.61 83.85 TC 15 1007 -13.65 84.15 TC 15 1006 13 277
1976 SI MM 22:00:00 TS -13.60 83.70 20 1007 bom 2139 2139 ______O__P__P_ -1 -13.60 83.60 20 20 1007 1.00 -13.57 83.63 TC 15 1007 -13.63 83.93 TC 15 1006 13 278
1976 SI MM 1976-03-13 00:00:00 TS -13.54 83.27 2167 2176 ______P__O__O_ -1 -13.53 83.19 20 20 1007 -13.50 83.20 TC 15 1007 -13.60 83.50 TC 15 1007 14 279
1976 SI MM 01:00:00 NR -13.50 83.00 20 1007 bom 2189 ______O_______ -1 -13.50 83.00 20 20 1007 1.00 TC TC 16 279